Maersk Drummond — A8JF3 — position and weather

sailwx.info

Track history (hours):
 
Tides and Currents Weather Stations Pressure Air Temp Water Temp Dewpoint Dewpoint Depression Visibility Wind Speed Wind Dir Waves Ship Positions

Maersk Drummond

Last reported at 2017-Aug-14 10:24 UTC. Time now 2017-Aug-17 23:30 UTC.
Position N 01°14' E 103°25'.

Length 294 m; draft 12.4 m.

Type: Ship (hazmat cat A). MMSI: 636091082.

Date/timePositionNaut miles runAvg speedWind from/ knotsBaromVisibWave heightAir tempDewpointWater temp
2017-Aug-14 10:24N 01°14' E 103°25'717.7
2017-Aug-14 09:59N 01°12' E 103°32'715.1
2017-Aug-14 09:30N 01°11' E 103°39'4 8.1
2017-Aug-14 09:01N 01°14' E 103°42'4 8.2
2017-Aug-14 08:30N 01°17' E 103°45'0 0.1
2017-Aug-14 07:58N 01°17' E 103°45'0 0.0
2017-Aug-14 07:28N 01°17' E 103°45'0 0.0
2017-Aug-14 06:58N 01°17' E 103°45'0 0.0
2017-Aug-14 06:28N 01°17' E 103°45'0 0.0
2017-Aug-14 05:58N 01°17' E 103°45'0 0.0
2017-Aug-14 05:28N 01°17' E 103°45'0 0.0
2017-Aug-14 04:58N 01°17' E 103°45'0 0.0
2017-Aug-14 04:28N 01°17' E 103°45'0 0.0
2017-Aug-14 03:58N 01°17' E 103°45'0 0.0
2017-Aug-14 03:28N 01°17' E 103°45'0 0.0
2017-Aug-14 02:55N 01°17' E 103°45'0 0.0
2017-Aug-14 02:28N 01°17' E 103°45'0 0.0
2017-Aug-14 01:58N 01°17' E 103°45'0 0.0
2017-Aug-14 01:28N 01°17' E 103°45'0 0.0
2017-Aug-14 00:55N 01°17' E 103°45'0 0.0
2017-Aug-14 00:28N 01°17' E 103°45'0 0.0
2017-Aug-13 23:58N 01°17' E 103°45'0 0.0
2017-Aug-13 23:28N 01°17' E 103°45'0 0.0
2017-Aug-13 22:58N 01°17' E 103°45'0 0.0
2017-Aug-13 22:28N 01°17' E 103°45'0 0.0
2017-Aug-13 21:58N 01°17' E 103°45'0 0.0
2017-Aug-13 21:28N 01°17' E 103°45'0 0.0
2017-Aug-13 20:55N 01°17' E 103°45'0 0.0
2017-Aug-13 20:28N 01°17' E 103°45'0 0.0
2017-Aug-13 19:55N 01°17' E 103°45'0 0.0
2017-Aug-13 19:25N 01°17' E 103°45'0 0.0
2017-Aug-13 18:58N 01°17' E 103°45'0 0.0
2017-Aug-13 18:28N 01°17' E 103°45'0 0.0
2017-Aug-13 17:58N 01°17' E 103°45'0 0.0
2017-Aug-13 17:28N 01°17' E 103°45'0 0.4
2017-Aug-13 17:01N 01°16' E 103°45'2 3.4
2017-Aug-13 16:30N 01°15' E 103°46'5 9.2
2017-Aug-13 16:00N 01°13' E 103°42'5 9.6
2017-Aug-13 15:30N 01°13' E 103°37'1 1.4
2017-Aug-13 15:00N 01°13' E 103°36'2 3.3
2017-Aug-13 14:31N 01°13' E 103°34'2 3.8
2017-Aug-13 13:59N 01°15' E 103°34'1 2.8
2017-Aug-13 13:29N 01°16' E 103°34'0 0.1
2017-Aug-13 12:59N 01°16' E 103°34'0 0.0
2017-Aug-13 12:29N 01°16' E 103°34'0 0.0
2017-Aug-13 11:53N 01°16' E 103°34'0 0.0
2017-Aug-13 11:29N 01°16' E 103°34'0 0.2
2017-Aug-13 10:59N 01°16' E 103°34'0 0.1
2017-Aug-13 10:23N 01°16' E 103°34'0 0.2
2017-Aug-13 09:59N 01°16' E 103°34'0 0.1
2017-Aug-13 09:29N 01°16' E 103°34'0 0.0
2017-Aug-13 08:56N 01°16' E 103°34'0 0.0
2017-Aug-13 08:26N 01°16' E 103°34'0 0.1
2017-Aug-13 07:59N 01°16' E 103°34'0 0.0
2017-Aug-13 07:29N 01°16' E 103°34'0 0.1
2017-Aug-13 06:59N 01°16' E 103°34'0 0.0
2017-Aug-13 06:29N 01°16' E 103°34'0 0.0
2017-Aug-13 05:59N 01°16' E 103°34'0 0.0
2017-Aug-13 05:29N 01°16' E 103°34'0 0.1
2017-Aug-13 04:50N 01°16' E 103°34'0 0.1
2017-Aug-13 04:20N 01°16' E 103°34'0 0.0
2017-Aug-13 03:59N 01°16' E 103°34'0 0.0
2017-Aug-13 03:29N 01°16' E 103°34'0 0.1
2017-Aug-13 02:59N 01°16' E 103°34'0 0.1
2017-Aug-13 02:14N 01°16' E 103°34'0 0.2
2017-Aug-13 01:59N 01°16' E 103°34'0 0.2
2017-Aug-13 01:29N 01°16' E 103°34'0 0.1
2017-Aug-13 00:56N 01°16' E 103°34'0 0.0
2017-Aug-13 00:29N 01°16' E 103°34'0 0.8
2017-Aug-12 23:59N 01°16' E 103°34'2 3.4
2017-Aug-12 23:30N 01°16' E 103°33'4 7.5
2017-Aug-12 23:00N 01°20' E 103°33'0 0.3
2017-Aug-12 22:31N 01°20' E 103°33'0 0.0
2017-Aug-12 21:54N 01°20' E 103°33'0 0.0
2017-Aug-12 21:30N 01°20' E 103°33'0 0.0
2017-Aug-12 20:51N 01°20' E 103°33'0 0.0
2017-Aug-12 20:27N 01°20' E 103°33'0 0.0
2017-Aug-12 19:57N 01°20' E 103°33'0 0.0
2017-Aug-12 19:24N 01°20' E 103°33'0 0.0
2017-Aug-12 18:27N 01°20' E 103°33'0 0.0
2017-Aug-12 17:57N 01°20' E 103°33'0 0.0
2017-Aug-12 17:24N 01°20' E 103°33'0 0.0
2017-Aug-12 16:48N 01°20' E 103°33'0 0.0
2017-Aug-12 16:15N 01°20' E 103°33'0 0.0
2017-Aug-12 15:36N 01°20' E 103°33'0 0.1
2017-Aug-12 15:30N 01°20' E 103°33'0 0.0
2017-Aug-12 14:57N 01°20' E 103°33'0 0.0
2017-Aug-12 14:27N 01°20' E 103°33'0 0.0
2017-Aug-12 13:57N 01°20' E 103°33'0 0.0
2017-Aug-12 13:27N 01°20' E 103°33'0 0.0
2017-Aug-12 12:57N 01°20' E 103°33'0 0.0
2017-Aug-12 12:24N 01°20' E 103°33'0 0.0
2017-Aug-12 11:57N 01°20' E 103°33'0 0.0
2017-Aug-12 11:27N 01°20' E 103°33'0 0.0
2017-Aug-12 10:54N 01°20' E 103°33'0 0.0
2017-Aug-12 10:30N 01°20' E 103°33'0 0.0
2017-Aug-12 09:57N 01°20' E 103°33'0 0.0
2017-Aug-12 09:30N 01°20' E 103°33'0 0.0
2017-Aug-12 08:57N 01°20' E 103°33'0 0.0
2017-Aug-12 08:30N 01°20' E 103°33'0 0.0
2017-Aug-12 07:57N 01°20' E 103°33'0 0.1
2017-Aug-12 07:30N 01°20' E 103°33'0 0.1
2017-Aug-12 06:57N 01°20' E 103°33'0 0.0
2017-Aug-12 06:27N 01°20' E 103°33'0 0.0
2017-Aug-12 05:54N 01°20' E 103°33'0 0.0
2017-Aug-12 05:30N 01°20' E 103°33'0 0.1
2017-Aug-12 05:00N 01°20' E 103°33'1 1.6
2017-Aug-12 04:30N 01°19' E 103°33'5 9.4
2017-Aug-12 03:59N 01°15' E 103°32'2 5.0
2017-Aug-12 03:30N 01°15' E 103°30'2 2.9
2017-Aug-12 02:54N 01°15' E 103°28'0 0.1
2017-Aug-12 02:12N 01°15' E 103°28'0 0.1
2017-Aug-12 01:57N 01°15' E 103°28'0 0.1
2017-Aug-12 01:30N 01°15' E 103°28'0 0.0
2017-Aug-12 01:00N 01°15' E 103°28'0 0.1
2017-Aug-12 00:30N 01°15' E 103°28'0 0.0
2017-Aug-11 23:57N 01°15' E 103°28'0 0.1
2017-Aug-11 23:27N 01°15' E 103°28'0 0.3
2017-Aug-11 23:00N 01°15' E 103°28'1 1.8
2017-Aug-11 22:28N 01°15' E 103°28'510.4
2017-Aug-11 22:01N 01°13' E 103°33'2 5.0
2017-Aug-11 21:31N 01°12' E 103°35'4 8.8
2017-Aug-11 21:00N 01°11' E 103°40'5 9.4
2017-Aug-11 20:31N 01°09' E 103°43'4 7.7
2017-Aug-11 20:01N 01°10' E 103°47'4 8.9
2017-Aug-11 19:30N 01°12' E 103°51'5 9.5
2017-Aug-11 18:59N 01°14' E 103°56'  
2017-Aug-05 05:18N 23°42' E 118°10'310.9
2017-Aug-05 04:59N 23°45' E 118°12'510.8
2017-Aug-05 04:30N 23°49' E 118°16'510.8
2017-Aug-05 04:00N 23°53' E 118°19'510.6
2017-Aug-05 03:30N 23°58' E 118°22'510.7
2017-Aug-05 03:00N 24°04' E 118°21'610.3
2017-Aug-05 02:28N 24°09' E 118°20'510.1
2017-Aug-05 02:00N 24°12' E 118°16'510.0
2017-Aug-05 01:30N 24°15' E 118°11'5 9.3
2017-Aug-05 01:00N 24°20' E 118°11'5 9.3
2017-Aug-05 00:30N 24°23' E 118°07'510.5
2017-Aug-05 00:01N 24°26' E 118°02'1 1.5
2017-Aug-04 23:31N 24°26' E 118°02'0 0.0
2017-Aug-04 23:01N 24°26' E 118°02'0 0.0
2017-Aug-04 22:29N 24°27' E 118°02'0 0.0
2017-Aug-04 21:56N 24°26' E 118°02'0 0.0
2017-Aug-04 21:29N 24°26' E 118°02'0 0.0
2017-Aug-04 20:59N 24°26' E 118°02'0 0.0
2017-Aug-04 20:26N 24°26' E 118°02'0 0.0
2017-Aug-04 19:59N 24°26' E 118°02'0 0.0
2017-Aug-04 19:29N 24°26' E 118°02'0 0.0
2017-Aug-04 18:59N 24°26' E 118°02'0 0.0
2017-Aug-04 18:29N 24°26' E 118°02'0 0.0
2017-Aug-04 17:56N 24°26' E 118°02'0 0.0
2017-Aug-04 17:29N 24°26' E 118°02'0 0.0
2017-Aug-04 16:59N 24°26' E 118°02'0 0.0
2017-Aug-04 16:29N 24°26' E 118°02'0 0.0
2017-Aug-04 15:59N 24°27' E 118°02'0 0.0
2017-Aug-04 15:23N 24°26' E 118°02'0 0.0
2017-Aug-04 14:59N 24°26' E 118°02'0 0.0
2017-Aug-04 13:59N 24°27' E 118°02'0 0.0
2017-Aug-04 13:29N 24°26' E 118°02'0 0.0
2017-Aug-04 12:59N 24°27' E 118°02'0 0.0
2017-Aug-04 12:29N 24°26' E 118°02'0 0.0
2017-Aug-04 11:59N 24°26' E 118°02'0 0.0
2017-Aug-04 11:29N 24°27' E 118°02'0 0.0
2017-Aug-04 10:53N 24°27' E 118°02'0 0.0
2017-Aug-04 10:29N 24°26' E 118°02'  
Track history (hours):
 
Tides and Currents Weather Stations Pressure Air Temp Water Temp Dewpoint Dewpoint Depression Visibility Wind Speed Wind Dir Waves Ship Positions

Maersk Drummond

Last reported at 2017-Aug-14 10:24 UTC. Time now 2017-Aug-17 23:30 UTC.
Position N 01°14' E 103°25'.

Length 294 m; draft 12.4 m.

Type: Ship (hazmat cat A). MMSI: 636091082.

Date/timePositionNaut miles runAvg speedWind from/ knotsBaromVisibWave heightAir tempDewpointWater temp
2017-Aug-14 10:24N 01°14' E 103°25'717.7
2017-Aug-14 09:59N 01°12' E 103°32'715.1
2017-Aug-14 09:30N 01°11' E 103°39'4 8.1
2017-Aug-14 09:01N 01°14' E 103°42'4 8.2
2017-Aug-14 08:30N 01°17' E 103°45'0 0.1
2017-Aug-14 07:58N 01°17' E 103°45'0 0.0
2017-Aug-14 07:28N 01°17' E 103°45'0 0.0
2017-Aug-14 06:58N 01°17' E 103°45'0 0.0
2017-Aug-14 06:28N 01°17' E 103°45'0 0.0
2017-Aug-14 05:58N 01°17' E 103°45'0 0.0
2017-Aug-14 05:28N 01°17' E 103°45'0 0.0
2017-Aug-14 04:58N 01°17' E 103°45'0 0.0
2017-Aug-14 04:28N 01°17' E 103°45'0 0.0
2017-Aug-14 03:58N 01°17' E 103°45'0 0.0
2017-Aug-14 03:28N 01°17' E 103°45'0 0.0
2017-Aug-14 02:55N 01°17' E 103°45'0 0.0
2017-Aug-14 02:28N 01°17' E 103°45'0 0.0
2017-Aug-14 01:58N 01°17' E 103°45'0 0.0
2017-Aug-14 01:28N 01°17' E 103°45'0 0.0
2017-Aug-14 00:55N 01°17' E 103°45'0 0.0
2017-Aug-14 00:28N 01°17' E 103°45'0 0.0
2017-Aug-13 23:58N 01°17' E 103°45'0 0.0
2017-Aug-13 23:28N 01°17' E 103°45'0 0.0
2017-Aug-13 22:58N 01°17' E 103°45'0 0.0
2017-Aug-13 22:28N 01°17' E 103°45'0 0.0
2017-Aug-13 21:58N 01°17' E 103°45'0 0.0
2017-Aug-13 21:28N 01°17' E 103°45'0 0.0
2017-Aug-13 20:55N 01°17' E 103°45'0 0.0
2017-Aug-13 20:28N 01°17' E 103°45'0 0.0
2017-Aug-13 19:55N 01°17' E 103°45'0 0.0
2017-Aug-13 19:25N 01°17' E 103°45'0 0.0
2017-Aug-13 18:58N 01°17' E 103°45'0 0.0
2017-Aug-13 18:28N 01°17' E 103°45'0 0.0
2017-Aug-13 17:58N 01°17' E 103°45'0 0.0
2017-Aug-13 17:28N 01°17' E 103°45'0 0.4
2017-Aug-13 17:01N 01°16' E 103°45'2 3.4
2017-Aug-13 16:30N 01°15' E 103°46'5 9.2
2017-Aug-13 16:00N 01°13' E 103°42'5 9.6
2017-Aug-13 15:30N 01°13' E 103°37'1 1.4
2017-Aug-13 15:00N 01°13' E 103°36'2 3.3
2017-Aug-13 14:31N 01°13' E 103°34'2 3.8
2017-Aug-13 13:59N 01°15' E 103°34'1 2.8
2017-Aug-13 13:29N 01°16' E 103°34'0 0.1
2017-Aug-13 12:59N 01°16' E 103°34'0 0.0
2017-Aug-13 12:29N 01°16' E 103°34'0 0.0
2017-Aug-13 11:53N 01°16' E 103°34'0 0.0
2017-Aug-13 11:29N 01°16' E 103°34'0 0.2
2017-Aug-13 10:59N 01°16' E 103°34'0 0.1
2017-Aug-13 10:23N 01°16' E 103°34'0 0.2
2017-Aug-13 09:59N 01°16' E 103°34'0 0.1
2017-Aug-13 09:29N 01°16' E 103°34'0 0.0
2017-Aug-13 08:56N 01°16' E 103°34'0 0.0
2017-Aug-13 08:26N 01°16' E 103°34'0 0.1
2017-Aug-13 07:59N 01°16' E 103°34'0 0.0
2017-Aug-13 07:29N 01°16' E 103°34'0 0.1
2017-Aug-13 06:59N 01°16' E 103°34'0 0.0
2017-Aug-13 06:29N 01°16' E 103°34'0 0.0
2017-Aug-13 05:59N 01°16' E 103°34'0 0.0
2017-Aug-13 05:29N 01°16' E 103°34'0 0.1
2017-Aug-13 04:50N 01°16' E 103°34'0 0.1
2017-Aug-13 04:20N 01°16' E 103°34'0 0.0
2017-Aug-13 03:59N 01°16' E 103°34'0 0.0
2017-Aug-13 03:29N 01°16' E 103°34'0 0.1
2017-Aug-13 02:59N 01°16' E 103°34'0 0.1
2017-Aug-13 02:14N 01°16' E 103°34'0 0.2
2017-Aug-13 01:59N 01°16' E 103°34'0 0.2
2017-Aug-13 01:29N 01°16' E 103°34'0 0.1
2017-Aug-13 00:56N 01°16' E 103°34'0 0.0
2017-Aug-13 00:29N 01°16' E 103°34'0 0.8
2017-Aug-12 23:59N 01°16' E 103°34'2 3.4
2017-Aug-12 23:30N 01°16' E 103°33'4 7.5
2017-Aug-12 23:00N 01°20' E 103°33'0 0.3
2017-Aug-12 22:31N 01°20' E 103°33'0 0.0
2017-Aug-12 21:54N 01°20' E 103°33'0 0.0
2017-Aug-12 21:30N 01°20' E 103°33'0 0.0
2017-Aug-12 20:51N 01°20' E 103°33'0 0.0
2017-Aug-12 20:27N 01°20' E 103°33'0 0.0
2017-Aug-12 19:57N 01°20' E 103°33'0 0.0
2017-Aug-12 19:24N 01°20' E 103°33'0 0.0
2017-Aug-12 18:27N 01°20' E 103°33'0 0.0
2017-Aug-12 17:57N 01°20' E 103°33'0 0.0
2017-Aug-12 17:24N 01°20' E 103°33'0 0.0
2017-Aug-12 16:48N 01°20' E 103°33'0 0.0
2017-Aug-12 16:15N 01°20' E 103°33'0 0.0
2017-Aug-12 15:36N 01°20' E 103°33'0 0.1
2017-Aug-12 15:30N 01°20' E 103°33'0 0.0
2017-Aug-12 14:57N 01°20' E 103°33'0 0.0
2017-Aug-12 14:27N 01°20' E 103°33'0 0.0
2017-Aug-12 13:57N 01°20' E 103°33'0 0.0
2017-Aug-12 13:27N 01°20' E 103°33'0 0.0
2017-Aug-12 12:57N 01°20' E 103°33'0 0.0
2017-Aug-12 12:24N 01°20' E 103°33'0 0.0
2017-Aug-12 11:57N 01°20' E 103°33'0 0.0
2017-Aug-12 11:27N 01°20' E 103°33'0 0.0
2017-Aug-12 10:54N 01°20' E 103°33'0 0.0
2017-Aug-12 10:30N 01°20' E 103°33'0 0.0
2017-Aug-12 09:57N 01°20' E 103°33'0 0.0
2017-Aug-12 09:30N 01°20' E 103°33'0 0.0
2017-Aug-12 08:57N 01°20' E 103°33'0 0.0
2017-Aug-12 08:30N 01°20' E 103°33'0 0.0
2017-Aug-12 07:57N 01°20' E 103°33'0 0.1
2017-Aug-12 07:30N 01°20' E 103°33'0 0.1
2017-Aug-12 06:57N 01°20' E 103°33'0 0.0
2017-Aug-12 06:27N 01°20' E 103°33'0 0.0
2017-Aug-12 05:54N 01°20' E 103°33'0 0.0
2017-Aug-12 05:30N 01°20' E 103°33'0 0.1
2017-Aug-12 05:00N 01°20' E 103°33'1 1.6
2017-Aug-12 04:30N 01°19' E 103°33'5 9.4
2017-Aug-12 03:59N 01°15' E 103°32'2 5.0
2017-Aug-12 03:30N 01°15' E 103°30'2 2.9
2017-Aug-12 02:54N 01°15' E 103°28'0 0.1
2017-Aug-12 02:12N 01°15' E 103°28'0 0.1
2017-Aug-12 01:57N 01°15' E 103°28'0 0.1
2017-Aug-12 01:30N 01°15' E 103°28'0 0.0
2017-Aug-12 01:00N 01°15' E 103°28'0 0.1
2017-Aug-12 00:30N 01°15' E 103°28'0 0.0
2017-Aug-11 23:57N 01°15' E 103°28'0 0.1
2017-Aug-11 23:27N 01°15' E 103°28'0 0.3
2017-Aug-11 23:00N 01°15' E 103°28'1 1.8
2017-Aug-11 22:28N 01°15' E 103°28'510.4
2017-Aug-11 22:01N 01°13' E 103°33'2 5.0
2017-Aug-11 21:31N 01°12' E 103°35'4 8.8
2017-Aug-11 21:00N 01°11' E 103°40'5 9.4
2017-Aug-11 20:31N 01°09' E 103°43'4 7.7
2017-Aug-11 20:01N 01°10' E 103°47'4 8.9
2017-Aug-11 19:30N 01°12' E 103°51'5 9.5
2017-Aug-11 18:59N 01°14' E 103°56'  
2017-Aug-05 05:18N 23°42' E 118°10'310.9
2017-Aug-05 04:59N 23°45' E 118°12'510.8
2017-Aug-05 04:30N 23°49' E 118°16'510.8
2017-Aug-05 04:00N 23°53' E 118°19'510.6
2017-Aug-05 03:30N 23°58' E 118°22'510.7
2017-Aug-05 03:00N 24°04' E 118°21'610.3
2017-Aug-05 02:28N 24°09' E 118°20'510.1
2017-Aug-05 02:00N 24°12' E 118°16'510.0
2017-Aug-05 01:30N 24°15' E 118°11'5 9.3
2017-Aug-05 01:00N 24°20' E 118°11'5 9.3
2017-Aug-05 00:30N 24°23' E 118°07'510.5
2017-Aug-05 00:01N 24°26' E 118°02'1 1.5
2017-Aug-04 23:31N 24°26' E 118°02'0 0.0
2017-Aug-04 23:01N 24°26' E 118°02'0 0.0
2017-Aug-04 22:29N 24°27' E 118°02'0 0.0
2017-Aug-04 21:56N 24°26' E 118°02'0 0.0
2017-Aug-04 21:29N 24°26' E 118°02'0 0.0
2017-Aug-04 20:59N 24°26' E 118°02'0 0.0
2017-Aug-04 20:26N 24°26' E 118°02'0 0.0
2017-Aug-04 19:59N 24°26' E 118°02'0 0.0
2017-Aug-04 19:29N 24°26' E 118°02'0 0.0
2017-Aug-04 18:59N 24°26' E 118°02'0 0.0
2017-Aug-04 18:29N 24°26' E 118°02'0 0.0
2017-Aug-04 17:56N 24°26' E 118°02'0 0.0
2017-Aug-04 17:29N 24°26' E 118°02'0 0.0
2017-Aug-04 16:59N 24°26' E 118°02'0 0.0
2017-Aug-04 16:29N 24°26' E 118°02'0 0.0
2017-Aug-04 15:59N 24°27' E 118°02'0 0.0
2017-Aug-04 15:23N 24°26' E 118°02'0 0.0
2017-Aug-04 14:59N 24°26' E 118°02'0 0.0
2017-Aug-04 13:59N 24°27' E 118°02'0 0.0
2017-Aug-04 13:29N 24°26' E 118°02'0 0.0
2017-Aug-04 12:59N 24°27' E 118°02'0 0.0
2017-Aug-04 12:29N 24°26' E 118°02'0 0.0
2017-Aug-04 11:59N 24°26' E 118°02'0 0.0
2017-Aug-04 11:29N 24°27' E 118°02'0 0.0
2017-Aug-04 10:53N 24°27' E 118°02'0 0.0
2017-Aug-04 10:29N 24°26' E 118°02'  

Dump ship's entire track history